createdAt,value
2022-08-25T00:00:19.023Z,17.40
2022-08-25T00:02:55.494Z,16.48
2022-08-25T00:05:29.219Z,16.17
2022-08-25T00:07:57.837Z,18.98
2022-08-25T00:10:25.863Z,21.90
2022-08-25T00:12:53.765Z,18.98
2022-08-25T00:15:23.031Z,13.90
2022-08-25T00:17:52.908Z,15.23
2022-08-25T00:20:20.895Z,23.90
2022-08-25T00:22:49.621Z,16.17
2022-08-25T00:25:19.148Z,16.00
2022-08-25T00:27:48.344Z,15.68
2022-08-25T00:30:17.577Z,17.33
2022-08-25T00:32:55.089Z,15.75
2022-08-25T00:35:25.817Z,17.45
2022-08-25T00:37:53.654Z,17.67
2022-08-25T00:40:46.416Z,15.50
2022-08-25T00:43:14.240Z,15.80
2022-08-25T00:45:41.914Z,16.13
2022-08-25T00:48:09.766Z,12.80
2022-08-25T00:50:37.499Z,15.68
2022-08-25T00:53:30.975Z,15.93
2022-08-25T00:55:59.281Z,15.43
2022-08-25T00:58:31.322Z,19.42
2022-08-25T01:01:24.534Z,19.10
2022-08-25T01:03:52.699Z,18.40
2022-08-25T01:06:20.638Z,17.85
2022-08-25T01:08:48.760Z,19.13
2022-08-25T01:11:16.659Z,14.52
2022-08-25T01:13:48.355Z,17.35
2022-08-25T01:16:17.089Z,19.75
2022-08-25T01:18:57.353Z,18.25
2022-08-25T01:21:27.122Z,19.90
2022-08-25T01:23:58.684Z,16.67
2022-08-25T01:26:30.975Z,24.02
2022-08-25T01:29:20.873Z,16.77
2022-08-25T01:31:51.384Z,16.88
2022-08-25T01:34:22.753Z,19.20
2022-08-25T01:36:51.011Z,16.70
2022-08-25T01:39:24.054Z,19.10
2022-08-25T01:42:28.468Z,15.13
2022-08-25T01:44:57.556Z,18.50
2022-08-25T01:47:25.314Z,18.10
2022-08-25T01:49:53.112Z,12.95
2022-08-25T01:52:29.756Z,17.33
2022-08-25T01:54:57.739Z,19.45
2022-08-25T01:57:31.707Z,21.70
2022-08-25T01:59:59.729Z,15.05
2022-08-25T02:02:54.089Z,26.77
2022-08-25T02:05:23.870Z,15.57
2022-08-25T02:07:51.694Z,21.42
2022-08-25T02:10:19.547Z,18.77
2022-08-25T02:13:12.995Z,25.02
2022-08-25T02:15:49.807Z,22.40
2022-08-25T02:18:19.719Z,24.80
2022-08-25T02:20:47.800Z,24.95
2022-08-25T02:23:18.854Z,27.10
2022-08-25T02:28:15.017Z,23.65
2022-08-25T02:30:48.267Z,29.75
2022-08-25T02:33:16.051Z,24.88
2022-08-25T02:36:10.403Z,23.38
2022-08-25T02:38:38.871Z,24.20
2022-08-25T02:41:20.339Z,24.17
2022-08-25T02:43:49.061Z,18.95
2022-08-25T02:46:20.106Z,23.52
2022-08-25T02:48:48.933Z,21.45
2022-08-25T02:51:16.836Z,18.85
2022-08-25T02:53:46.340Z,20.70
2022-08-25T02:56:16.147Z,27.67
2022-08-25T02:58:46.108Z,25.95
2022-08-25T03:01:15.158Z,22.83
2022-08-25T03:03:45.893Z,25.63
2022-08-25T03:06:17.510Z,22.15
2022-08-25T03:08:45.873Z,28.92
2022-08-25T03:11:13.616Z,23.65
2022-08-25T03:13:41.746Z,17.42
2022-08-25T03:16:11.356Z,20.20
2022-08-25T03:18:42.131Z,23.02
2022-08-25T03:21:11.773Z,24.15
2022-08-25T03:23:41.238Z,25.40
2022-08-25T03:26:52.817Z,27.75
2022-08-25T03:29:23.759Z,26.23
2022-08-25T03:34:45.187Z,31.92
2022-08-25T03:37:12.972Z,23.15
2022-08-25T03:39:41.812Z,26.13
2022-08-25T03:42:09.978Z,26.42
2022-08-25T03:45:03.451Z,23.45
2022-08-25T03:47:31.660Z,28.25
2022-08-25T03:49:59.403Z,29.42
2022-08-25T03:52:27.335Z,27.83
2022-08-25T03:54:55.056Z,21.88
2022-08-25T03:57:24.748Z,26.48
2022-08-25T03:59:52.802Z,26.65
2022-08-25T04:02:20.677Z,29.13
2022-08-25T04:04:48.504Z,22.70
2022-08-25T04:07:16.842Z,26.35
2022-08-25T04:09:44.689Z,23.42
2022-08-25T04:12:12.494Z,22.02
2022-08-25T04:14:42.126Z,25.63
2022-08-25T04:17:09.853Z,21.95
2022-08-25T04:19:38.415Z,32.60
2022-08-25T04:22:06.567Z,22.55
2022-08-25T04:24:34.427Z,24.65
2022-08-25T04:27:02.387Z,31.73
2022-08-25T04:29:30.188Z,30.50
2022-08-25T04:31:58.018Z,33.45
2022-08-25T04:34:30.337Z,31.60
2022-08-25T04:37:03.830Z,29.35
2022-08-25T04:39:32.164Z,31.13
2022-08-25T04:42:01.351Z,34.47
2022-08-25T04:44:30.703Z,31.63
2022-08-25T04:46:59.346Z,27.27
2022-08-25T04:49:27.513Z,27.90
2022-08-25T04:51:57.692Z,35.25
2022-08-25T04:54:25.675Z,39.30
2022-08-25T04:56:58.763Z,33.05
2022-08-25T04:59:29.447Z,40.45
2022-08-25T05:02:02.755Z,44.72
2022-08-25T05:04:33.064Z,34.45
2022-08-25T05:07:01.963Z,38.60
2022-08-25T05:09:32.117Z,33.88
2022-08-25T05:14:32.965Z,31.75
2022-08-25T05:17:02.242Z,33.90
2022-08-25T05:19:30.591Z,36.22
2022-08-25T05:21:58.431Z,28.90
2022-08-25T05:24:26.592Z,30.00
2022-08-25T05:26:54.389Z,35.13
2022-08-25T05:29:22.649Z,43.50
2022-08-25T05:31:50.958Z,32.00
2022-08-25T05:34:44.521Z,31.90
2022-08-25T05:37:12.382Z,33.50
2022-08-25T05:40:06.957Z,35.05
2022-08-25T05:42:35.870Z,39.33
2022-08-25T05:45:07.830Z,29.48
2022-08-25T05:47:35.580Z,34.58
2022-08-25T05:50:03.933Z,32.03
2022-08-25T05:52:56.647Z,34.50
2022-08-25T05:55:24.510Z,35.65
2022-08-25T05:57:52.390Z,36.10
2022-08-25T06:00:20.271Z,39.50
2022-08-25T06:02:49.953Z,44.67
2022-08-25T06:05:20.807Z,35.63
2022-08-25T06:10:20.366Z,40.33
2022-08-25T06:12:50.809Z,35.60
2022-08-25T06:15:21.372Z,38.00
2022-08-25T06:17:50.237Z,40.53
2022-08-25T06:20:25.387Z,48.92
2022-08-25T06:22:55.012Z,36.20
2022-08-25T06:25:25.086Z,36.70
2022-08-25T06:27:55.353Z,43.03
2022-08-25T06:30:28.549Z,40.20
2022-08-25T06:32:57.934Z,43.03
2022-08-25T06:35:25.642Z,44.42
2022-08-25T06:37:54.997Z,39.53
2022-08-25T06:40:47.971Z,36.17
2022-08-25T06:43:22.479Z,37.70
2022-08-25T06:45:54.648Z,38.50
2022-08-25T06:48:24.058Z,52.70
2022-08-25T06:50:51.743Z,44.40
2022-08-25T06:53:19.655Z,35.15
2022-08-25T06:55:56.825Z,49.67
2022-08-25T06:58:25.150Z,42.40
2022-08-25T07:00:53.394Z,36.25
2022-08-25T07:05:56.835Z,75.90
2022-08-25T07:08:24.580Z,37.65
2022-08-25T07:10:52.278Z,39.90
2022-08-25T07:13:20.134Z,38.17
2022-08-25T07:15:47.864Z,41.60
2022-08-25T07:18:18.342Z,45.53
2022-08-25T07:23:13.536Z,65.13
2022-08-25T07:25:41.222Z,36.70
2022-08-25T07:28:09.333Z,43.40
2022-08-25T07:30:38.300Z,52.60
2022-08-25T07:33:06.918Z,33.10
2022-08-25T07:35:37.790Z,32.13
2022-08-25T07:38:09.094Z,38.25
2022-08-25T07:40:43.273Z,37.55
2022-08-25T07:43:13.715Z,35.90
2022-08-25T07:45:49.094Z,33.63
2022-08-25T07:48:20.152Z,30.95
2022-08-25T07:50:49.097Z,37.70
2022-08-25T07:53:18.062Z,56.03
2022-08-25T07:55:48.571Z,35.78
2022-08-25T07:58:16.733Z,32.97
2022-08-25T08:00:48.668Z,31.60
2022-08-25T08:03:44.786Z,35.40
2022-08-25T08:06:13.547Z,41.38
2022-08-25T08:11:20.659Z,33.65
2022-08-25T08:13:54.569Z,33.17
2022-08-25T08:16:28.035Z,48.22
2022-08-25T08:18:57.491Z,29.00
2022-08-25T08:21:32.519Z,33.30
2022-08-25T08:24:01.379Z,34.17
2022-08-25T08:26:55.360Z,32.40
2022-08-25T08:29:20.338Z,32.83
2022-08-25T08:31:50.556Z,36.97
2022-08-25T08:34:18.733Z,34.42
2022-08-25T08:36:46.584Z,36.10
2022-08-25T08:39:14.317Z,42.47
2022-08-25T08:42:11.653Z,30.75
2022-08-25T08:44:56.126Z,21.35
2022-08-25T08:47:34.301Z,28.40
2022-08-25T08:50:30.805Z,24.67
2022-08-25T08:53:13.753Z,25.02
2022-08-25T08:55:52.722Z,29.75
2022-08-25T08:58:28.927Z,24.83
2022-08-25T09:01:02.027Z,28.20
2022-08-25T09:03:55.206Z,25.08
2022-08-25T09:06:34.273Z,31.38
2022-08-25T09:09:06.659Z,25.17
2022-08-25T09:12:23.609Z,23.15
2022-08-25T09:15:12.672Z,31.48
2022-08-25T09:18:06.171Z,34.92
2022-08-25T09:20:36.975Z,49.78
2022-08-25T09:23:07.647Z,34.03
2022-08-25T09:25:53.207Z,32.50
2022-08-25T09:28:30.223Z,35.03
2022-08-25T09:31:20.009Z,35.53
2022-08-25T09:33:47.914Z,33.40
2022-08-25T09:36:16.727Z,25.05
2022-08-25T09:38:47.605Z,40.28
2022-08-25T09:41:35.956Z,25.08
2022-08-25T09:44:05.292Z,31.87
2022-08-25T09:46:33.890Z,23.67
2022-08-25T09:49:13.617Z,25.58
2022-08-25T09:51:43.447Z,24.30
2022-08-25T09:54:14.419Z,21.23
2022-08-25T09:56:49.764Z,18.95
2022-08-25T09:59:34.246Z,25.98
2022-08-25T10:02:05.464Z,23.80
2022-08-25T10:04:40.049Z,22.98
2022-08-25T10:07:30.428Z,21.63
2022-08-25T10:10:08.512Z,22.08
2022-08-25T10:12:44.137Z,22.80
2022-08-25T10:15:32.668Z,21.08
2022-08-25T10:18:15.436Z,18.95
2022-08-25T10:21:01.926Z,15.68
2022-08-25T10:23:30.778Z,18.90
2022-08-25T10:26:03.756Z,18.98
2022-08-25T10:28:59.827Z,16.38
2022-08-25T10:31:45.149Z,12.10
2022-08-25T10:34:31.616Z,15.85
2022-08-25T10:37:13.580Z,15.88
2022-08-25T10:39:47.946Z,11.35
2022-08-25T10:45:50.914Z,17.60
2022-08-25T10:48:42.332Z,17.27
2022-08-25T10:51:28.688Z,18.63
2022-08-25T10:55:05.046Z,17.42
2022-08-25T10:57:39.993Z,13.73
2022-08-25T11:00:14.217Z,12.85
2022-08-25T11:03:07.680Z,13.20
2022-08-25T11:05:43.613Z,16.42
2022-08-25T11:08:35.235Z,14.57
2022-08-25T11:11:13.300Z,13.88
2022-08-25T11:13:47.789Z,15.45
2022-08-25T11:16:48.597Z,16.13
2022-08-25T11:19:22.378Z,20.05
2022-08-25T11:22:21.174Z,16.73
2022-08-25T11:25:18.859Z,23.90
2022-08-25T11:30:23.701Z,18.80
2022-08-25T11:32:55.671Z,15.45
2022-08-25T11:35:34.277Z,17.65
2022-08-25T11:38:14.170Z,20.25
2022-08-25T11:40:57.578Z,17.88
2022-08-25T11:43:56.429Z,16.38
2022-08-25T11:46:57.611Z,13.77
2022-08-25T11:49:52.154Z,16.25
2022-08-25T11:52:32.051Z,16.75
2022-08-25T11:55:11.794Z,19.50
2022-08-25T11:57:40.792Z,16.33
2022-08-25T12:00:13.385Z,17.20
2022-08-25T12:02:51.328Z,15.38
2022-08-25T12:05:19.041Z,20.75
2022-08-25T12:07:47.339Z,16.13
2022-08-25T12:10:57.318Z,20.13
2022-08-25T12:13:53.313Z,14.30
2022-08-25T12:16:46.905Z,20.02
2022-08-25T12:19:29.143Z,17.02
2022-08-25T12:22:04.075Z,18.13
2022-08-25T12:24:47.732Z,17.20
2022-08-25T12:27:25.059Z,23.88
2022-08-25T12:30:18.611Z,19.00
2022-08-25T12:33:13.727Z,13.15
2022-08-25T12:35:58.528Z,18.83
2022-08-25T12:39:24.634Z,18.17
2022-08-25T12:41:58.414Z,16.85
2022-08-25T12:44:40.337Z,15.40
2022-08-25T12:47:29.370Z,17.75
2022-08-25T12:50:39.337Z,18.23
2022-08-25T12:53:29.488Z,18.23
2022-08-25T12:56:05.444Z,17.30
2022-08-25T12:59:00.358Z,17.42
2022-08-25T13:01:36.846Z,15.65
2022-08-25T13:04:30.858Z,18.92
2022-08-25T13:07:19.705Z,21.20
2022-08-25T13:10:17.834Z,19.70
2022-08-25T13:13:07.214Z,18.40
2022-08-25T13:15:57.957Z,14.10
2022-08-25T13:18:31.679Z,15.55
2022-08-25T13:21:24.573Z,19.92
2022-08-25T13:24:01.658Z,9.05
2022-08-25T13:26:48.041Z,15.02
2022-08-25T13:29:22.244Z,12.57
2022-08-25T13:32:12.648Z,17.10
2022-08-25T13:34:42.864Z,11.43
2022-08-25T13:37:30.220Z,15.25
2022-08-25T13:40:20.076Z,13.57
2022-08-25T13:43:08.038Z,9.50
2022-08-25T13:45:46.668Z,14.65
2022-08-25T13:48:49.388Z,15.93
2022-08-25T13:51:31.476Z,17.95
2022-08-25T13:54:06.538Z,17.10
2022-08-25T13:56:43.856Z,17.58
2022-08-25T13:59:23.626Z,15.98
2022-08-25T14:01:54.358Z,12.90
2022-08-25T14:04:32.296Z,16.35
2022-08-25T14:07:34.099Z,13.68
2022-08-25T14:10:07.423Z,14.52
2022-08-25T14:12:45.178Z,19.30
2022-08-25T14:15:20.177Z,13.38
2022-08-25T14:18:09.748Z,14.50
2022-08-25T14:20:54.816Z,12.38
2022-08-25T14:23:27.580Z,13.80
2022-08-25T14:25:58.008Z,13.93
2022-08-25T14:28:29.518Z,12.52
2022-08-25T14:31:01.272Z,20.30
2022-08-25T14:33:33.633Z,14.88
2022-08-25T14:36:06.245Z,19.42
2022-08-25T14:38:35.709Z,21.38
2022-08-25T14:43:40.213Z,20.55
2022-08-25T14:46:15.626Z,14.27
2022-08-25T14:48:46.940Z,20.67
2022-08-25T14:51:17.353Z,15.60
2022-08-25T14:53:45.745Z,22.60
2022-08-25T14:56:14.192Z,11.98
2022-08-25T14:58:50.868Z,13.32
2022-08-25T15:01:28.513Z,11.73
2022-08-25T15:04:03.720Z,12.50
2022-08-25T15:06:32.457Z,10.75
2022-08-25T15:09:11.260Z,17.98
2022-08-25T15:11:42.797Z,13.98
2022-08-25T15:14:28.772Z,14.88
2022-08-25T15:17:05.646Z,11.25
2022-08-25T15:19:39.340Z,13.52
2022-08-25T15:22:07.799Z,18.95
2022-08-25T15:24:39.047Z,13.65
2022-08-25T15:27:10.233Z,18.70
2022-08-25T15:29:38.087Z,17.95
2022-08-25T15:32:10.550Z,19.63
2022-08-25T15:34:39.262Z,15.35
2022-08-25T15:37:13.969Z,17.45
2022-08-25T15:39:44.864Z,15.38
2022-08-25T15:44:43.023Z,11.88
2022-08-25T15:47:26.600Z,17.98
2022-08-25T15:50:10.129Z,16.83
2022-08-25T15:52:46.480Z,14.95
2022-08-25T15:55:21.924Z,26.42
2022-08-25T15:57:50.241Z,15.30
2022-08-25T16:00:18.926Z,15.15
2022-08-25T16:02:50.027Z,14.13
2022-08-25T16:05:20.450Z,23.00
2022-08-25T16:07:53.660Z,18.27
2022-08-25T16:10:22.005Z,14.45
2022-08-25T16:12:49.775Z,12.98
2022-08-25T16:15:17.606Z,14.32
2022-08-25T16:17:50.612Z,14.60
2022-08-25T16:20:19.943Z,18.90
2022-08-25T16:22:49.439Z,19.02
2022-08-25T16:25:19.660Z,12.65
2022-08-25T16:27:48.521Z,21.65
2022-08-25T16:30:17.612Z,13.43
2022-08-25T16:32:47.002Z,13.70
2022-08-25T16:35:15.546Z,16.25
2022-08-25T16:37:44.475Z,14.60
2022-08-25T16:40:14.709Z,15.68
2022-08-25T16:45:11.973Z,13.32
2022-08-25T16:47:39.976Z,14.32
2022-08-25T16:50:11.028Z,19.30
2022-08-25T16:52:58.276Z,17.23
2022-08-25T16:55:38.763Z,15.10
2022-08-25T17:00:41.236Z,18.83
2022-08-25T17:03:11.792Z,23.27
2022-08-25T17:05:42.856Z,19.00
2022-08-25T17:11:12.498Z,18.40
2022-08-25T17:13:44.526Z,20.75
2022-08-25T17:16:14.556Z,20.65
2022-08-25T17:18:43.083Z,17.40
2022-08-25T17:21:24.632Z,17.55
2022-08-25T17:23:58.010Z,19.23
2022-08-25T17:26:28.902Z,15.25
2022-08-25T17:29:00.820Z,26.00
2022-08-25T17:31:30.703Z,16.65
2022-08-25T17:33:59.534Z,15.70
2022-08-25T17:36:27.928Z,18.67
2022-08-25T17:38:57.022Z,23.67
2022-08-25T17:41:26.118Z,20.08
2022-08-25T17:43:54.046Z,23.40
2022-08-25T17:46:24.731Z,14.32
2022-08-25T17:48:53.230Z,19.63
2022-08-25T17:51:22.697Z,20.58
2022-08-25T17:53:53.906Z,14.60
2022-08-25T17:56:27.255Z,22.55
2022-08-25T17:58:56.502Z,22.98
2022-08-25T18:01:31.165Z,15.98
2022-08-25T18:04:00.484Z,20.92
2022-08-25T18:06:30.291Z,19.70
2022-08-25T18:09:04.928Z,20.77
2022-08-25T18:11:33.470Z,19.25
2022-08-25T18:14:23.383Z,15.68
2022-08-25T18:16:57.342Z,22.27
2022-08-25T18:19:25.178Z,19.27
2022-08-25T18:21:53.054Z,25.50
2022-08-25T18:24:24.505Z,21.08
2022-08-25T18:26:53.983Z,17.58
2022-08-25T18:29:23.100Z,21.45
2022-08-25T18:31:57.078Z,21.33
2022-08-25T18:34:27.607Z,22.15
2022-08-25T18:37:18.584Z,21.98
2022-08-25T18:40:05.241Z,32.38
2022-08-25T18:42:36.618Z,25.13
2022-08-25T18:45:06.647Z,25.27
2022-08-25T18:47:35.044Z,27.98
2022-08-25T18:50:04.727Z,27.67
2022-08-25T18:52:35.450Z,23.20
2022-08-25T18:57:32.836Z,24.88
2022-08-25T19:00:01.673Z,26.40
2022-08-25T19:02:30.826Z,27.98
2022-08-25T19:05:01.783Z,28.27
2022-08-25T19:07:35.569Z,24.02
2022-08-25T19:10:09.075Z,23.98
2022-08-25T19:12:37.496Z,23.85
2022-08-25T19:15:05.943Z,21.42
2022-08-25T19:17:37.871Z,20.17
2022-08-25T19:20:11.010Z,20.63
2022-08-25T19:22:42.081Z,19.67
2022-08-25T19:25:11.919Z,21.95
2022-08-25T19:27:42.807Z,22.50
2022-08-25T19:30:17.011Z,23.75
2022-08-25T19:32:48.444Z,17.38
2022-08-25T19:35:39.615Z,21.30
2022-08-25T19:38:34.244Z,18.88
2022-08-25T19:40:59.942Z,22.10
2022-08-25T19:43:28.168Z,26.90
2022-08-25T19:45:56.363Z,22.08
2022-08-25T19:48:24.650Z,23.85
2022-08-25T19:50:57.020Z,24.27
2022-08-25T19:53:25.570Z,23.90
2022-08-25T19:55:54.745Z,27.60
2022-08-25T19:58:23.520Z,27.40
2022-08-25T20:00:52.488Z,24.63
2022-08-25T20:03:21.750Z,23.00
2022-08-25T20:05:49.803Z,19.05
2022-08-25T20:08:17.978Z,19.35
2022-08-25T20:10:58.531Z,25.88
2022-08-25T20:13:26.332Z,23.67
2022-08-25T20:15:57.676Z,18.90
2022-08-25T20:18:26.657Z,24.80
2022-08-25T20:20:56.523Z,19.83
2022-08-25T20:23:45.599Z,25.05
2022-08-25T20:26:13.556Z,23.98
2022-08-25T20:28:42.257Z,24.50
2022-08-25T20:31:10.698Z,23.90
2022-08-25T20:33:38.546Z,20.13
2022-08-25T20:36:08.368Z,23.60
2022-08-25T20:38:36.647Z,28.02
2022-08-25T20:41:10.156Z,23.35
2022-08-25T20:43:40.387Z,22.45
2022-08-25T20:46:09.780Z,29.25
2022-08-25T20:48:38.900Z,25.63
2022-08-25T20:51:08.838Z,25.55
2022-08-25T20:53:38.181Z,27.63
2022-08-25T20:56:11.267Z,34.00
2022-08-25T20:59:05.051Z,24.45
2022-08-25T21:01:39.857Z,31.05
2022-08-25T21:04:14.499Z,22.33
2022-08-25T21:06:44.511Z,33.38
2022-08-25T21:09:16.126Z,21.03
2022-08-25T21:11:46.229Z,22.48
2022-08-25T21:14:15.524Z,30.85
2022-08-25T21:16:48.309Z,32.30
2022-08-25T21:19:26.701Z,27.80
2022-08-25T21:22:00.385Z,23.08
2022-08-25T21:24:29.482Z,23.23
2022-08-25T21:27:23.981Z,27.65
2022-08-25T21:29:54.832Z,24.50
2022-08-25T21:33:02.296Z,22.83
2022-08-25T21:35:39.809Z,26.02
2022-08-25T21:38:07.770Z,27.63
2022-08-25T21:40:37.051Z,26.50
2022-08-25T21:43:04.964Z,30.58
2022-08-25T21:45:42.189Z,26.52
2022-08-25T21:48:15.750Z,27.83
2022-08-25T21:50:45.223Z,25.00
2022-08-25T21:53:13.259Z,27.25
2022-08-25T21:55:42.153Z,30.70
2022-08-25T21:58:10.332Z,29.85
2022-08-25T22:00:38.988Z,26.35
2022-08-25T22:03:09.181Z,33.00
2022-08-25T22:05:37.765Z,31.40
2022-08-25T22:08:05.706Z,26.10
2022-08-25T22:10:33.648Z,29.77
2022-08-25T22:13:02.935Z,29.95
2022-08-25T22:15:31.079Z,28.17
2022-08-25T22:17:59.116Z,40.78
2022-08-25T22:20:28.830Z,33.00
2022-08-25T22:22:57.075Z,30.67
2022-08-25T22:25:25.061Z,35.50
2022-08-25T22:27:56.697Z,39.90
2022-08-25T22:30:26.097Z,25.27
2022-08-25T22:32:59.190Z,27.38
2022-08-25T22:35:28.203Z,28.63
2022-08-25T22:37:56.155Z,24.42
2022-08-25T22:40:24.210Z,26.23
2022-08-25T22:42:52.352Z,30.88
2022-08-25T22:45:20.455Z,28.70
2022-08-25T22:47:48.742Z,27.08
2022-08-25T22:50:18.110Z,32.60
2022-08-25T22:52:48.376Z,28.73
2022-08-25T22:55:16.882Z,26.60
2022-08-25T22:57:44.900Z,31.55
2022-08-25T23:00:40.637Z,29.23
2022-08-25T23:03:12.092Z,33.90
2022-08-25T23:05:42.387Z,30.38
2022-08-25T23:08:10.356Z,30.40
2022-08-25T23:10:38.897Z,26.17
2022-08-25T23:13:07.432Z,27.10
2022-08-25T23:15:35.408Z,31.20
2022-08-25T23:18:04.813Z,26.17
2022-08-25T23:20:51.202Z,28.77
2022-08-25T23:23:21.156Z,23.30
2022-08-25T23:25:51.638Z,29.48
2022-08-25T23:28:20.080Z,32.22
2022-08-25T23:30:57.123Z,28.42
2022-08-25T23:33:31.433Z,32.75
2022-08-25T23:36:02.094Z,29.20
2022-08-25T23:38:30.188Z,39.45
2022-08-25T23:40:59.104Z,40.03
2022-08-25T23:43:53.309Z,38.95
2022-08-25T23:46:24.605Z,37.70
2022-08-25T23:48:55.029Z,29.25
2022-08-25T23:51:33.662Z,34.45
2022-08-25T23:54:06.584Z,32.33
2022-08-25T23:56:37.840Z,35.25
2022-08-25T23:59:14.423Z,28.40
